Tumble, United Kingdom
Current Conditions -  °F | °C
As of 5:50 PM on Sunday 21 Dec 2014 (Local Time) from EGOP Reporting Station
Overcast Overcast  
Wind Chill: 11°   Ceiling: 400
Heat Index: 11°   Visibility: 2.6mi
Dew Point: 11°   Wind: 29mph
Humidity: 100%   Direction: 240°WSW
Pressure: 30.21"   Gusts: NA
Location:  51.78°N, 4.11°W
Report Text: EGOP 211750Z AUTO 24025KT 4200 // OVC004/// 11/11 Q1023
Loading
Personal Weather Stations






























Interactive Weather Map New forecast layout! Learn more

10-Day Weather Forecast

Advertisements
Track Severe Weather on mobile